sensor_id;sensor_type;location;lat;lon;timestamp;pressure;altitude;pressure_sealevel;temperature;humidity
79481;BME280;68944;48.262;14.208;2024-01-07T00:01:29;97462.31;;;1.14;100.00
79481;BME280;68944;48.262;14.208;2024-01-07T00:03:55;97464.28;;;1.12;100.00
79481;BME280;68944;48.262;14.208;2024-01-07T00:06:20;97458.44;;;1.10;100.00
79481;BME280;68944;48.262;14.208;2024-01-07T00:08:46;97462.31;;;1.14;100.00
79481;BME280;68944;48.262;14.208;2024-01-07T00:11:13;97455.75;;;1.18;100.00
79481;BME280;68944;48.262;14.208;2024-01-07T00:13:38;97462.59;;;1.19;100.00
79481;BME280;68944;48.262;14.208;2024-01-07T00:16:04;97460.78;;;1.20;100.00
79481;BME280;68944;48.262;14.208;2024-01-07T00:18:29;97458.81;;;1.22;100.00
79481;BME280;68944;48.262;14.208;2024-01-07T00:20:55;97454.75;;;1.19;100.00
79481;BME280;68944;48.262;14.208;2024-01-07T00:23:20;97456.53;;;1.19;100.00
79481;BME280;68944;48.262;14.208;2024-01-07T00:25:49;97455.75;;;1.18;100.00
79481;BME280;68944;48.262;14.208;2024-01-07T00:28:14;97456.53;;;1.19;100.00
79481;BME280;68944;48.262;14.208;2024-01-07T00:30:40;97453.31;;;1.17;100.00
79481;BME280;68944;48.262;14.208;2024-01-07T00:33:05;97449.72;;;1.18;100.00
79481;BME280;68944;48.262;14.208;2024-01-07T00:35:31;97446.09;;;1.19;100.00
79481;BME280;68944;48.262;14.208;2024-01-07T00:37:57;97446.31;;;1.17;100.00
79481;BME280;68944;48.262;14.208;2024-01-07T00:40:23;97446.94;;;1.19;100.00
79481;BME280;68944;48.262;14.208;2024-01-07T00:42:48;97449.19;;;1.22;100.00
79481;BME280;68944;48.262;14.208;2024-01-07T00:45:14;97447.56;;;1.21;100.00
79481;BME280;68944;48.262;14.208;2024-01-07T00:47:41;97449.19;;;1.22;100.00
79481;BME280;68944;48.262;14.208;2024-01-07T00:50:06;97447.19;;;1.24;100.00
79481;BME280;68944;48.262;14.208;2024-01-07T00:52:32;97453.41;;;1.23;100.00
79481;BME280;68944;48.262;14.208;2024-01-07T00:54:57;97452.78;;;1.21;100.00
79481;BME280;68944;48.262;14.208;2024-01-07T00:57:23;97445.75;;;1.22;100.00
79481;BME280;68944;48.262;14.208;2024-01-07T00:59:48;97463.69;;;1.25;100.00
79481;BME280;68944;48.262;14.208;2024-01-07T01:02:16;97460.25;;;1.24;100.00
79481;BME280;68944;48.262;14.208;2024-01-07T01:04:41;97464.22;;;1.20;100.00
79481;BME280;68944;48.262;14.208;2024-01-07T01:07:07;97465.72;;;1.15;100.00
79481;BME280;68944;48.262;14.208;2024-01-07T01:09:35;97460.22;;;1.09;100.00
79481;BME280;68944;48.262;14.208;2024-01-07T01:12:01;97471.47;;;1.10;100.00
79481;BME280;68944;48.262;14.208;2024-01-07T01:14:27;97471.03;;;1.06;100.00
79481;BME280;68944;48.262;14.208;2024-01-07T01:16:52;97472.03;;;1.05;100.00
79481;BME280;68944;48.262;14.208;2024-01-07T01:19:18;97466.63;;;1.07;100.00
79481;BME280;68944;48.262;14.208;2024-01-07T01:21:43;97464.66;;;1.09;100.00
79481;BME280;68944;48.262;14.208;2024-01-07T01:24:09;97463.03;;;1.08;100.00
79481;BME280;68944;48.262;14.208;2024-01-07T01:26:34;97470.50;;;1.11;100.00
79481;BME280;68944;48.262;14.208;2024-01-07T01:29:00;97468.53;;;1.13;100.00
79481;BME280;68944;48.262;14.208;2024-01-07T01:31:25;97469.69;;;1.10;100.00
79481;BME280;68944;48.262;14.208;2024-01-07T01:33:51;97470.50;;;1.11;100.00
79481;BME280;68944;48.262;14.208;2024-01-07T01:36:16;97470.13;;;1.14;100.00
79481;BME280;68944;48.262;14.208;2024-01-07T01:38:43;97466.28;;;1.10;100.00
79481;BME280;68944;48.262;14.208;2024-01-07T01:41:08;97458.44;;;1.10;100.00
79481;BME280;68944;48.262;14.208;2024-01-07T01:43:35;97461.69;;;1.12;100.00
79481;BME280;68944;48.262;14.208;2024-01-07T01:46:02;97453.56;;;1.07;100.00
79481;BME280;68944;48.262;14.208;2024-01-07T01:48:27;97451.34;;;1.04;100.00
79481;BME280;68944;48.262;14.208;2024-01-07T01:50:54;97453.13;;;1.03;100.00
79481;BME280;68944;48.262;14.208;2024-01-07T01:53:20;97455.38;;;1.06;100.00
79481;BME280;68944;48.262;14.208;2024-01-07T01:55:46;97458.25;;;1.11;100.00
79481;BME280;68944;48.262;14.208;2024-01-07T01:58:13;97462.16;;;1.16;100.00
79481;BME280;68944;48.262;14.208;2024-01-07T02:00:38;97458.38;;;1.18;100.00
79481;BME280;68944;48.262;14.208;2024-01-07T02:03:04;97460.25;;;1.24;100.00
79481;BME280;68944;48.262;14.208;2024-01-07T02:05:30;97459.44;;;1.24;100.00
79481;BME280;68944;48.262;14.208;2024-01-07T02:07:56;97454.66;;;1.28;100.00
79481;BME280;68944;48.262;14.208;2024-01-07T02:10:22;97460.69;;;1.28;100.00
79481;BME280;68944;48.262;14.208;2024-01-07T02:12:47;97461.50;;;1.29;100.00
79481;BME280;68944;48.262;14.208;2024-01-07T02:15:14;97460.34;;;1.31;100.00
79481;BME280;68944;48.262;14.208;2024-01-07T02:17:40;97456.72;;;1.32;100.00
79481;BME280;68944;48.262;14.208;2024-01-07T02:20:06;97456.72;;;1.32;100.00
79481;BME280;68944;48.262;14.208;2024-01-07T02:22:31;97462.31;;;1.29;100.00
79481;BME280;68944;48.262;14.208;2024-01-07T02:24:57;97459.88;;;1.28;100.00
79481;BME280;68944;48.262;14.208;2024-01-07T02:27:23;97466.72;;;1.29;100.00
79481;BME280;68944;48.262;14.208;2024-01-07T02:29:48;97468.34;;;1.30;100.00
79481;BME280;68944;48.262;14.208;2024-01-07T02:32:14;97465.75;;;1.30;100.00
79481;BME280;68944;48.262;14.208;2024-01-07T02:34:39;97469.97;;;1.31;100.00
79481;BME280;68944;48.262;14.208;2024-01-07T02:37:05;97475.00;;;1.32;100.00
79481;BME280;68944;48.262;14.208;2024-01-07T02:39:31;97476.63;;;1.33;100.00
79481;BME280;68944;48.262;14.208;2024-01-07T02:41:57;97476.81;;;1.32;100.00
79481;BME280;68944;48.262;14.208;2024-01-07T02:44:22;97476.00;;;1.31;100.00
79481;BME280;68944;48.262;14.208;2024-01-07T02:46:48;97482.81;;;1.32;100.00
79481;BME280;68944;48.262;14.208;2024-01-07T02:49:13;97485.63;;;1.31;100.00
79481;BME280;68944;48.262;14.208;2024-01-07T02:51:39;97480.41;;;1.31;100.00
79481;BME280;68944;48.262;14.208;2024-01-07T02:54:04;97470.31;;;1.28;100.00
79481;BME280;68944;48.262;14.208;2024-01-07T02:56:30;97473.94;;;1.27;100.00
79481;BME280;68944;48.262;14.208;2024-01-07T02:58:55;97465.09;;;1.28;100.00
79481;BME280;68944;48.262;14.208;2024-01-07T03:01:22;97469.44;;;1.20;100.00
79481;BME280;68944;48.262;14.208;2024-01-07T03:03:48;97477.41;;;1.19;100.00
79481;BME280;68944;48.262;14.208;2024-01-07T03:06:13;97473.66;;;1.21;100.00
79481;BME280;68944;48.262;14.208;2024-01-07T03:08:39;97471.66;;;1.23;100.00
79481;BME280;68944;48.262;14.208;2024-01-07T03:11:05;97475.91;;;1.24;100.00
79481;BME280;68944;48.262;14.208;2024-01-07T03:13:31;97473.09;;;1.26;100.00
79481;BME280;68944;48.262;14.208;2024-01-07T03:15:57;97473.56;;;1.30;100.00
79481;BME280;68944;48.262;14.208;2024-01-07T03:18:22;97474.00;;;1.33;100.00
79481;BME280;68944;48.262;14.208;2024-01-07T03:20:48;97472.22;;;1.34;100.00
79481;BME280;68944;48.262;14.208;2024-01-07T03:23:13;97480.66;;;1.36;100.00
79481;BME280;68944;48.262;14.208;2024-01-07T03:25:39;97479.03;;;1.35;100.00
79481;BME280;68944;48.262;14.208;2024-01-07T03:28:04;97479.66;;;1.37;100.00
79481;BME280;68944;48.262;14.208;2024-01-07T03:30:30;97481.31;;;1.38;100.00
79481;BME280;68944;48.262;14.208;2024-01-07T03:32:55;97496.78;;;1.40;100.00
79481;BME280;68944;48.262;14.208;2024-01-07T03:35:21;97489.75;;;1.40;100.00
79481;BME280;68944;48.262;14.208;2024-01-07T03:37:49;97483.56;;;1.41;100.00
79481;BME280;68944;48.262;14.208;2024-01-07T03:40:15;97482.91;;;1.39;100.00
79481;BME280;68944;48.262;14.208;2024-01-07T03:42:41;97485.16;;;1.42;100.00
79481;BME280;68944;48.262;14.208;2024-01-07T03:45:06;97487.97;;;1.41;100.00
79481;BME280;68944;48.262;14.208;2024-01-07T03:47:32;97485.50;;;1.39;100.00
79481;BME280;68944;48.262;14.208;2024-01-07T03:49:57;97490.72;;;1.39;100.00
79481;BME280;68944;48.262;14.208;2024-01-07T03:52:23;97489.94;;;1.39;100.00
79481;BME280;68944;48.262;14.208;2024-01-07T03:54:48;97497.59;;;1.40;100.00
79481;BME280;68944;48.262;14.208;2024-01-07T03:57:14;97491.00;;;1.44;100.00
79481;BME280;68944;48.262;14.208;2024-01-07T03:59:39;97483.38;;;1.43;100.00
79481;BME280;68944;48.262;14.208;2024-01-07T04:02:05;97494.16;;;1.40;100.00
79481;BME280;68944;48.262;14.208;2024-01-07T04:04:31;97491.75;;;1.38;100.00
79481;BME280;68944;48.262;14.208;2024-01-07T04:06:56;97490.72;;;1.39;100.00
79481;BME280;68944;48.262;14.208;2024-01-07T04:09:22;97497.94;;;1.37;100.00
79481;BME280;68944;48.262;14.208;2024-01-07T04:11:47;97494.78;;;1.42;100.00
79481;BME280;68944;48.262;14.208;2024-01-07T04:14:15;97493.63;;;1.44;100.00
79481;BME280;68944;48.262;14.208;2024-01-07T04:16:41;97496.41;;;1.43;100.00
79481;BME280;68944;48.262;14.208;2024-01-07T04:19:07;97497.69;;;1.47;100.00
79481;BME280;68944;48.262;14.208;2024-01-07T04:21:32;97492.91;;;1.51;100.00
79481;BME280;68944;48.262;14.208;2024-01-07T04:23:58;97500.00;;;1.57;100.00
79481;BME280;68944;48.262;14.208;2024-01-07T04:26:23;97501.25;;;1.61;100.00
79481;BME280;68944;48.262;14.208;2024-01-07T04:28:49;97501.88;;;1.63;100.00
79481;BME280;68944;48.262;14.208;2024-01-07T04:31:15;97508.56;;;1.66;100.00
79481;BME280;68944;48.262;14.208;2024-01-07T04:33:40;97505.75;;;1.67;100.00
79481;BME280;68944;48.262;14.208;2024-01-07T04:36:06;97514.59;;;1.66;100.00
79481;BME280;68944;48.262;14.208;2024-01-07T04:38:32;97516.38;;;1.66;100.00
79481;BME280;68944;48.262;14.208;2024-01-07T04:40:57;97521.19;;;1.62;100.00
79481;BME280;68944;48.262;14.208;2024-01-07T04:43:23;97514.94;;;1.63;100.00
79481;BME280;68944;48.262;14.208;2024-01-07T04:45:48;97517.38;;;1.65;100.00
79481;BME280;68944;48.262;14.208;2024-01-07T04:48:15;97507.75;;;1.65;100.00
79481;BME280;68944;48.262;14.208;2024-01-07T04:50:40;97519.44;;;1.69;100.00
79481;BME280;68944;48.262;14.208;2024-01-07T04:53:10;97520.72;;;1.74;100.00
79481;BME280;68944;48.262;14.208;2024-01-07T04:55:36;97524.56;;;1.78;100.00
79481;BME280;68944;48.262;14.208;2024-01-07T04:58:02;97532.03;;;1.81;100.00
79481;BME280;68944;48.262;14.208;2024-01-07T05:00:30;97525.81;;;1.82;100.00
79481;BME280;68944;48.262;14.208;2024-01-07T05:02:55;97534.91;;;1.86;100.00
79481;BME280;68944;48.262;14.208;2024-01-07T05:05:21;97536.47;;;1.80;100.00
79481;BME280;68944;48.262;14.208;2024-01-07T05:07:46;97533.03;;;1.80;100.00
79481;BME280;68944;48.262;14.208;2024-01-07T05:10:12;97538.06;;;1.81;100.00
79481;BME280;68944;48.262;14.208;2024-01-07T05:12:37;97534.09;;;1.86;100.00
79481;BME280;68944;48.262;14.208;2024-01-07T05:15:04;97539.50;;;1.84;100.00
79481;BME280;68944;48.262;14.208;2024-01-07T05:17:29;97536.28;;;1.82;100.00
79481;BME280;68944;48.262;14.208;2024-01-07T05:19:55;97533.47;;;1.84;100.00
79481;BME280;68944;48.262;14.208;2024-01-07T05:22:21;97539.78;;;1.89;100.00
79481;BME280;68944;48.262;14.208;2024-01-07T05:24:47;97536.78;;;1.92;100.00
79481;BME280;68944;48.262;14.208;2024-01-07T05:27:13;97534.16;;;1.92;100.00
79481;BME280;68944;48.262;14.208;2024-01-07T05:29:38;97547.88;;;1.95;100.00
79481;BME280;68944;48.262;14.208;2024-01-07T05:32:05;97554.72;;;1.96;100.00
79481;BME280;68944;48.262;14.208;2024-01-07T05:34:31;97549.69;;;1.94;100.00
79481;BME280;68944;48.262;14.208;2024-01-07T05:36:57;97552.72;;;1.98;100.00
79481;BME280;68944;48.262;14.208;2024-01-07T05:39:22;97565.53;;;1.92;100.00
79481;BME280;68944;48.262;14.208;2024-01-07T05:41:48;97565.72;;;1.91;100.00
79481;BME280;68944;48.262;14.208;2024-01-07T05:44:13;97566.19;;;1.95;100.00
79481;BME280;68944;48.262;14.208;2024-01-07T05:46:39;97570.03;;;1.99;100.00
79481;BME280;68944;48.262;14.208;2024-01-07T05:49:05;97571.22;;;1.96;100.00
79481;BME280;68944;48.262;14.208;2024-01-07T05:51:31;97576.44;;;1.96;100.00
79481;BME280;68944;48.262;14.208;2024-01-07T05:53:57;97580.84;;;1.96;100.00
79481;BME280;68944;48.262;14.208;2024-01-07T05:56:23;97584.47;;;1.95;100.00
79481;BME280;68944;48.262;14.208;2024-01-07T05:58:48;97589.69;;;1.95;100.00
79481;BME280;68944;48.262;14.208;2024-01-07T06:01:19;97588.88;;;1.94;100.00
79481;BME280;68944;48.262;14.208;2024-01-07T06:03:47;97594.09;;;1.94;100.00
79481;BME280;68944;48.262;14.208;2024-01-07T06:06:15;97592.31;;;1.95;100.00
79481;BME280;68944;48.262;14.208;2024-01-07T06:08:42;97599.31;;;1.94;100.00
79481;BME280;68944;48.262;14.208;2024-01-07T06:11:08;97591.41;;;1.87;100.00
79481;BME280;68944;48.262;14.208;2024-01-07T06:13:33;97594.03;;;1.87;100.00
79481;BME280;68944;48.262;14.208;2024-01-07T06:15:59;97600.06;;;1.88;100.00
79481;BME280;68944;48.262;14.208;2024-01-07T06:18:24;97600.06;;;1.88;100.00
79481;BME280;68944;48.262;14.208;2024-01-07T06:20:50;97600.84;;;1.88;100.00
79481;BME280;68944;48.262;14.208;2024-01-07T06:23:15;97594.72;;;1.81;100.00
79481;BME280;68944;48.262;14.208;2024-01-07T06:25:41;97597.72;;;1.78;100.00
79481;BME280;68944;48.262;14.208;2024-01-07T06:28:06;97612.03;;;1.82;100.00
79481;BME280;68944;48.262;14.208;2024-01-07T06:30:32;97611.22;;;1.81;100.00
79481;BME280;68944;48.262;14.208;2024-01-07T06:32:57;97613.09;;;1.73;100.00
79481;BME280;68944;48.262;14.208;2024-01-07T06:35:23;97606.88;;;1.58;100.00
79481;BME280;68944;48.262;14.208;2024-01-07T06:37:49;97607.94;;;1.49;100.00
79481;BME280;68944;48.262;14.208;2024-01-07T06:40:15;97613.88;;;1.43;100.00
79481;BME280;68944;48.262;14.208;2024-01-07T06:42:41;97611.28;;;1.43;100.00
79481;BME280;68944;48.262;14.208;2024-01-07T06:45:06;97624.44;;;1.50;100.00
79481;BME280;68944;48.262;14.208;2024-01-07T06:47:32;97632.53;;;1.55;100.00
79481;BME280;68944;48.262;14.208;2024-01-07T06:49:58;97639.38;;;1.56;100.00
79481;BME280;68944;48.262;14.208;2024-01-07T06:52:23;97637.41;;;1.58;100.00
79481;BME280;68944;48.262;14.208;2024-01-07T06:54:49;97638.94;;;1.52;100.00
79481;BME280;68944;48.262;14.208;2024-01-07T06:57:14;97637.94;;;1.53;100.00
79481;BME280;68944;48.262;14.208;2024-01-07T06:59:40;97646.94;;;1.51;100.00
79481;BME280;68944;48.262;14.208;2024-01-07T07:02:05;97644.97;;;1.53;100.00
79481;BME280;68944;48.262;14.208;2024-01-07T07:04:30;97648.56;;;1.52;100.00
79481;BME280;68944;48.262;14.208;2024-01-07T07:06:56;97652.19;;;1.51;100.00
79481;BME280;68944;48.262;14.208;2024-01-07T07:09:23;97653.78;;;1.52;100.00
79481;BME280;68944;48.262;14.208;2024-01-07T07:11:48;97664.22;;;1.52;100.00
79481;BME280;68944;48.262;14.208;2024-01-07T07:14:15;97658.56;;;1.48;100.00
79481;BME280;68944;48.262;14.208;2024-01-07T07:16:40;97659.25;;;1.42;100.00
79481;BME280;68944;48.262;14.208;2024-01-07T07:19:05;97657.97;;;1.38;100.00
79481;BME280;68944;48.262;14.208;2024-01-07T07:21:31;97670.59;;;1.34;100.00
79481;BME280;68944;48.262;14.208;2024-01-07T07:23:56;97676.44;;;1.36;100.00
79481;BME280;68944;48.262;14.208;2024-01-07T07:26:22;97677.59;;;1.33;100.00
79481;BME280;68944;48.262;14.208;2024-01-07T07:28:48;97682.19;;;1.31;100.00
79481;BME280;68944;48.262;14.208;2024-01-07T07:31:14;97685.25;;;1.35;100.00
79481;BME280;68944;48.262;14.208;2024-01-07T07:33:40;97697.94;;;1.38;100.00
79481;BME280;68944;48.262;14.208;2024-01-07T07:36:06;97698.59;;;1.40;100.00
79481;BME280;68944;48.262;14.208;2024-01-07T07:38:32;97697.31;;;1.36;100.00
79481;BME280;68944;48.262;14.208;2024-01-07T07:40:58;97699.63;;;1.31;100.00
79481;BME280;68944;48.262;14.208;2024-01-07T07:43:24;97704.09;;;1.22;100.00
79481;BME280;68944;48.262;14.208;2024-01-07T07:45:50;97716.53;;;1.20;100.00
79481;BME280;68944;48.262;14.208;2024-01-07T07:48:16;97713.28;;;1.18;100.00
79481;BME280;68944;48.262;14.208;2024-01-07T07:50:42;97710.25;;;1.06;100.00
79481;BME280;68944;48.262;14.208;2024-01-07T07:53:08;97721.84;;;1.03;100.00
79481;BME280;68944;48.262;14.208;2024-01-07T07:55:35;97725.59;;;1.00;100.00
79481;BME280;68944;48.262;14.208;2024-01-07T07:58:00;97724.78;;;1.00;100.00
79481;BME280;68944;48.262;14.208;2024-01-07T08:00:26;97730.66;;;1.02;100.00
79481;BME280;68944;48.262;14.208;2024-01-07T08:02:51;97735.88;;;1.02;100.00
79481;BME280;68944;48.262;14.208;2024-01-07T08:05:17;97740.28;;;1.01;100.00
79481;BME280;68944;48.262;14.208;2024-01-07T08:07:42;97740.91;;;1.04;100.00
79481;BME280;68944;48.262;14.208;2024-01-07T08:10:08;97745.13;;;1.05;100.00
79481;BME280;68944;48.262;14.208;2024-01-07T08:12:34;97740.09;;;1.03;100.00
79481;BME280;68944;48.262;14.208;2024-01-07T08:14:59;97749.72;;;1.02;100.00
79481;BME280;68944;48.262;14.208;2024-01-07T08:17:25;97750.72;;;1.01;100.00
79481;BME280;68944;48.262;14.208;2024-01-07T08:19:50;97750.88;;;1.00;100.00
79481;BME280;68944;48.262;14.208;2024-01-07T08:22:17;97751.69;;;1.00;100.00
79481;BME280;68944;48.262;14.208;2024-01-07T08:24:42;97757.53;;;1.02;100.00
79481;BME280;68944;48.262;14.208;2024-01-07T08:27:08;97761.44;;;1.07;100.00
79481;BME280;68944;48.262;14.208;2024-01-07T08:29:34;97761.44;;;1.07;100.00
79481;BME280;68944;48.262;14.208;2024-01-07T08:32:00;97769.94;;;1.00;100.00
79481;BME280;68944;48.262;14.208;2024-01-07T08:34:26;97772.25;;;0.95;100.00
79481;BME280;68944;48.262;14.208;2024-01-07T08:36:52;97771.66;;;0.85;100.00
79481;BME280;68944;48.262;14.208;2024-01-07T08:39:19;97780.63;;;0.82;100.00
79481;BME280;68944;48.262;14.208;2024-01-07T08:41:45;97773.97;;;0.79;100.00
79481;BME280;68944;48.262;14.208;2024-01-07T08:44:11;97782.59;;;0.80;100.00
79481;BME280;68944;48.262;14.208;2024-01-07T08:46:36;97784.06;;;0.83;100.00
79481;BME280;68944;48.262;14.208;2024-01-07T08:49:02;97787.63;;;0.82;100.00
79481;BME280;68944;48.262;14.208;2024-01-07T08:51:28;97790.59;;;0.78;100.00
79481;BME280;68944;48.262;14.208;2024-01-07T08:53:54;97794.66;;;0.81;100.00
79481;BME280;68944;48.262;14.208;2024-01-07T08:56:20;97790.59;;;0.78;100.00
79481;BME280;68944;48.262;14.208;2024-01-07T08:58:46;97796.63;;;0.79;100.00
79481;BME280;68944;48.262;14.208;2024-01-07T09:01:11;97801.03;;;0.78;100.00
79481;BME280;68944;48.262;14.208;2024-01-07T09:03:39;97804.28;;;0.81;100.00
79481;BME280;68944;48.262;14.208;2024-01-07T09:06:06;97806.84;;;0.89;100.00
79481;BME280;68944;48.262;14.208;2024-01-07T09:08:31;97815.81;;;0.95;100.00
79481;BME280;68944;48.262;14.208;2024-01-07T09:10:57;97814.03;;;0.87;100.00
79481;BME280;68944;48.262;14.208;2024-01-07T09:13:25;97815.50;;;0.89;100.00
79481;BME280;68944;48.262;14.208;2024-01-07T09:15:51;97817.91;;;0.99;100.00
79481;BME280;68944;48.262;14.208;2024-01-07T09:18:16;97827.34;;;1.00;100.00
79481;BME280;68944;48.262;14.208;2024-01-07T09:20:42;97818.25;;;0.96;100.00
79481;BME280;68944;48.262;14.208;2024-01-07T09:23:07;97828.66;;;0.96;100.00
79481;BME280;68944;48.262;14.208;2024-01-07T09:25:33;97833.25;;;0.94;100.00
79481;BME280;68944;48.262;14.208;2024-01-07T09:27:58;97825.41;;;0.94;100.00
79481;BME280;68944;48.262;14.208;2024-01-07T09:30:24;97839.16;;;0.88;100.00
79481;BME280;68944;48.262;14.208;2024-01-07T09:32:49;97837.34;;;0.88;100.00
79481;BME280;68944;48.262;14.208;2024-01-07T09:35:15;97845.16;;;0.88;100.00
79481;BME280;68944;48.262;14.208;2024-01-07T09:37:41;97846.63;;;0.91;100.00
79481;BME280;68944;48.262;14.208;2024-01-07T09:40:07;97851.50;;;0.94;100.00
79481;BME280;68944;48.262;14.208;2024-01-07T09:42:33;97836.81;;;1.01;100.00
79481;BME280;68944;48.262;14.208;2024-01-07T09:45:03;97839.88;;;1.05;100.00
79481;BME280;68944;48.262;14.208;2024-01-07T09:47:31;97833.69;;;1.06;100.00
79481;BME280;68944;48.262;14.208;2024-01-07T09:49:57;97831.84;;;1.15;100.00
79481;BME280;68944;48.262;14.208;2024-01-07T09:52:23;97839.16;;;1.20;100.00
79481;BME280;68944;48.262;14.208;2024-01-07T09:54:58;97838.34;;;1.19;100.00
79481;BME280;68944;48.262;14.208;2024-01-07T09:57:25;97840.44;;;1.24;100.00
79481;BME280;68944;48.262;14.208;2024-01-07T09:59:51;97836.25;;;1.15;100.00
79481;BME280;68944;48.262;14.208;2024-01-07T10:02:16;97833.59;;;1.23;100.00
79481;BME280;68944;48.262;14.208;2024-01-07T10:04:42;97840.63;;;1.22;100.00
79481;BME280;68944;48.262;14.208;2024-01-07T10:07:09;97844.84;;;1.23;100.00
79481;BME280;68944;48.262;14.208;2024-01-07T10:09:34;97842.25;;;1.23;100.00
79481;BME280;68944;48.262;14.208;2024-01-07T10:12:00;97839.81;;;1.22;100.00
79481;BME280;68944;48.262;14.208;2024-01-07T10:14:25;97835.69;;;1.28;100.00
79481;BME280;68944;48.262;14.208;2024-01-07T10:16:52;97836.81;;;1.33;100.00
79481;BME280;68944;48.262;14.208;2024-01-07T10:19:23;97834.09;;;1.27;100.00
79481;BME280;68944;48.262;14.208;2024-01-07T10:22:03;97834.84;;;1.35;100.00
79481;BME280;68944;48.262;14.208;2024-01-07T10:24:36;97843.44;;;1.44;100.00
79481;BME280;68944;48.262;14.208;2024-01-07T10:27:06;97831.19;;;1.45;100.00
79481;BME280;68944;48.262;14.208;2024-01-07T10:29:32;97831.19;;;1.45;100.00
79481;BME280;68944;48.262;14.208;2024-01-07T10:32:01;97830.78;;;1.33;100.00
79481;BME280;68944;48.262;14.208;2024-01-07T10:34:33;97835.69;;;1.28;100.00
79481;BME280;68944;48.262;14.208;2024-01-07T10:37:00;97838.28;;;1.36;100.00
79481;BME280;68944;48.262;14.208;2024-01-07T10:39:26;97843.81;;;1.41;100.00
79481;BME280;68944;48.262;14.208;2024-01-07T10:41:55;97839.16;;;1.52;100.00
79481;BME280;68944;48.262;14.208;2024-01-07T10:44:27;97838.31;;;1.59;100.00
79481;BME280;68944;48.262;14.208;2024-01-07T10:46:56;97830.75;;;1.41;100.00
79481;BME280;68944;48.262;14.208;2024-01-07T10:49:23;97840.00;;;1.20;100.00
79481;BME280;68944;48.262;14.208;2024-01-07T10:52:06;97841.28;;;1.24;100.00
79481;BME280;68944;48.262;14.208;2024-01-07T10:54:33;97842.41;;;1.22;100.00
79481;BME280;68944;48.262;14.208;2024-01-07T10:57:04;97852.41;;;1.10;100.00
79481;BME280;68944;48.262;14.208;2024-01-07T10:59:33;97851.81;;;0.99;100.00
79481;BME280;68944;48.262;14.208;2024-01-07T11:01:59;97858.06;;;0.90;100.00
79481;BME280;68944;48.262;14.208;2024-01-07T11:05:05;97860.78;;;0.97;100.00
79481;BME280;68944;48.262;14.208;2024-01-07T11:07:40;97860.94;;;0.95;100.00
79481;BME280;68944;48.262;14.208;2024-01-07T11:12:35;97848.72;;;0.96;100.00
79481;BME280;68944;48.262;14.208;2024-01-07T11:15:01;97853.47;;;0.84;100.00
79481;BME280;68944;48.262;14.208;2024-01-07T11:20:04;97849.94;;;0.76;100.00
79481;BME280;68944;48.262;14.208;2024-01-07T11:22:30;97851.56;;;0.77;100.00
79481;BME280;68944;48.262;14.208;2024-01-07T11:25:00;97850.88;;;0.84;100.00
79481;BME280;68944;48.262;14.208;2024-01-07T11:27:29;97852.84;;;0.82;100.00
79481;BME280;68944;48.262;14.208;2024-01-07T11:30:02;97856.22;;;0.90;100.00
79481;BME280;68944;48.262;14.208;2024-01-07T11:32:30;97846.34;;;0.86;100.00
79481;BME280;68944;48.262;14.208;2024-01-07T11:34:56;97849.72;;;0.86;100.00
79481;BME280;68944;48.262;14.208;2024-01-07T11:37:24;97852.38;;;0.78;100.00
79481;BME280;68944;48.262;14.208;2024-01-07T11:39:53;97853.47;;;0.92;100.00
79481;BME280;68944;48.262;14.208;2024-01-07T11:42:21;97856.09;;;0.92;100.00
79481;BME280;68944;48.262;14.208;2024-01-07T11:47:16;97852.09;;;1.13;100.00
79481;BME280;68944;48.262;14.208;2024-01-07T11:49:42;97854.34;;;1.16;100.00
79481;BME280;68944;48.262;14.208;2024-01-07T11:52:08;97856.81;;;1.09;100.00
79481;BME280;68944;48.262;14.208;2024-01-07T11:54:38;97856.03;;;1.09;100.00
79481;BME280;68944;48.262;14.208;2024-01-07T11:57:07;97861.38;;;1.16;100.00
79481;BME280;68944;48.262;14.208;2024-01-07T11:59:36;97857.31;;;1.05;100.00
79481;BME280;68944;48.262;14.208;2024-01-07T12:02:01;97870.09;;;0.99;100.00
79481;BME280;68944;48.262;14.208;2024-01-07T12:04:32;97869.41;;;1.06;100.00
79481;BME280;68944;48.262;14.208;2024-01-07T12:06:58;97866.28;;;1.10;100.00
79481;BME280;68944;48.262;14.208;2024-01-07T12:09:24;97864.50;;;1.11;100.00
79481;BME280;68944;48.262;14.208;2024-01-07T12:11:50;97860.44;;;1.08;100.00
79481;BME280;68944;48.262;14.208;2024-01-07T12:14:17;97864.50;;;1.02;100.00
79481;BME280;68944;48.262;14.208;2024-01-07T12:16:43;97862.84;;;1.10;100.00
79481;BME280;68944;48.262;14.208;2024-01-07T12:19:09;97875.06;;;1.18;100.00
79481;BME280;68944;48.262;14.208;2024-01-07T12:21:35;97881.06;;;1.27;100.00
79481;BME280;68944;48.262;14.208;2024-01-07T12:24:01;97889.19;;;1.32;100.00
79481;BME280;68944;48.262;14.208;2024-01-07T12:26:28;97873.88;;;1.29;100.00
79481;BME280;68944;48.262;14.208;2024-01-07T12:28:55;97875.66;;;1.28;100.00
79481;BME280;68944;48.262;14.208;2024-01-07T12:31:23;97880.22;;;1.34;100.00
79481;BME280;68944;48.262;14.208;2024-01-07T12:33:49;97885.72;;;1.40;100.00
79481;BME280;68944;48.262;14.208;2024-01-07T12:36:14;97892.41;;;1.42;100.00
79481;BME280;68944;48.262;14.208;2024-01-07T12:38:40;97885.13;;;1.29;100.00
79481;BME280;68944;48.262;14.208;2024-01-07T12:41:06;97891.69;;;1.17;100.00
79481;BME280;68944;48.262;14.208;2024-01-07T12:43:32;97896.09;;;1.16;100.00
79481;BME280;68944;48.262;14.208;2024-01-07T12:45:58;97895.94;;;1.09;100.00
79481;BME280;68944;48.262;14.208;2024-01-07T12:48:30;97908.72;;;1.04;100.00
79481;BME280;68944;48.262;14.208;2024-01-07T12:50:56;97906.09;;;1.04;100.00
79481;BME280;68944;48.262;14.208;2024-01-07T12:53:21;97903.66;;;1.02;100.00